createdAt,value
2018-07-20T00:00:01.174Z,6.2
2018-07-20T00:10:01.128Z,5.9
2018-07-20T00:15:01.046Z,5.9
2018-07-20T00:20:01.100Z,5.8
2018-07-20T00:25:01.074Z,6.2
2018-07-20T00:30:01.127Z,6.4
2018-07-20T00:35:01.070Z,6.6
2018-07-20T00:40:01.144Z,6.5
2018-07-20T00:45:01.076Z,6.5
2018-07-20T00:55:01.104Z,6.4
2018-07-20T01:00:01.177Z,6.2
2018-07-20T01:05:01.042Z,6.6
2018-07-20T01:15:01.186Z,6.6
2018-07-20T01:20:01.122Z,6.8
2018-07-20T01:25:01.019Z,7.5
2018-07-20T01:30:01.218Z,7.2
2018-07-20T01:35:01.029Z,7.5
2018-07-20T01:45:01.063Z,7.7
2018-07-20T01:50:01.071Z,8.3
2018-07-20T01:55:01.070Z,8.6
2018-07-20T02:00:01.070Z,9.2
2018-07-20T02:05:01.071Z,10.0
2018-07-20T02:15:01.137Z,9.9
2018-07-20T02:25:01.160Z,10.2
2018-07-20T02:30:01.104Z,9.9
2018-07-20T02:35:01.081Z,10.1
2018-07-20T02:45:01.157Z,10.8
2018-07-20T02:50:01.084Z,10.5
2018-07-20T02:55:01.085Z,10.6
2018-07-20T03:00:01.234Z,9.8
2018-07-20T03:05:01.057Z,9.3
2018-07-20T03:10:01.139Z,8.7
2018-07-20T03:15:01.092Z,8.4
2018-07-20T03:25:01.229Z,9.0
2018-07-20T03:30:01.165Z,9.5
2018-07-20T03:35:01.097Z,9.7
2018-07-20T03:45:01.171Z,9.3
2018-07-20T03:50:01.169Z,9.2
2018-07-20T03:55:01.104Z,8.8
2018-07-20T04:00:01.171Z,8.7
2018-07-20T04:05:01.105Z,8.0
2018-07-20T04:10:01.147Z,7.8
2018-07-20T04:15:01.109Z,8.0
2018-07-20T04:20:01.224Z,8.4
2018-07-20T04:30:01.169Z,9.2
2018-07-20T04:35:01.106Z,9.5
2018-07-20T04:40:01.180Z,9.7
2018-07-20T04:45:01.113Z,9.2
2018-07-20T04:50:01.168Z,8.9
2018-07-20T04:55:01.066Z,9.6
2018-07-20T05:00:01.239Z,10.3
2018-07-20T05:05:01.129Z,11.2
2018-07-20T05:10:01.176Z,12.0
2018-07-20T05:15:01.113Z,13.2
2018-07-20T05:20:01.170Z,13.7
2018-07-20T05:25:06.104Z,14.7
2018-07-20T05:30:06.234Z,14.3
2018-07-20T05:35:06.099Z,15.3
2018-07-20T05:45:06.245Z,15.0
2018-07-20T05:50:01.263Z,13.9
2018-07-20T05:55:06.185Z,13.8
2018-07-20T06:00:06.187Z,13.2
2018-07-20T06:05:01.148Z,13.0
2018-07-20T06:10:06.237Z,13.2
2018-07-20T06:15:01.097Z,12.9
2018-07-20T06:20:01.103Z,12.2
2018-07-20T06:25:01.101Z,10.7
2018-07-20T06:30:01.236Z,9.4
2018-07-20T06:35:01.080Z,7.6
2018-07-20T06:40:01.112Z,6.5
2018-07-20T06:45:06.110Z,5.8
2018-07-20T06:50:06.241Z,5.1
2018-07-20T06:55:06.156Z,4.7
2018-07-20T07:00:01.174Z,4.8
2018-07-20T07:05:01.089Z,4.6
2018-07-20T07:10:01.242Z,4.4
2018-07-20T07:15:01.142Z,4.1
2018-07-20T07:26:01.286Z,3.6
2018-07-20T07:36:06.239Z,3.2
2018-07-20T07:41:06.138Z,3.3
2018-07-20T07:46:01.142Z,3.2
2018-07-20T07:51:06.180Z,3.3
2018-07-20T07:56:06.117Z,2.9
2018-07-20T08:01:01.202Z,3.0
2018-07-20T08:06:01.100Z,3.1
2018-07-20T08:11:01.164Z,2.8
2018-07-20T08:16:01.098Z,2.5
2018-07-20T08:21:01.171Z,2.6
2018-07-20T08:31:01.239Z,2.9
2018-07-20T08:36:01.114Z,3.1
2018-07-20T08:42:06.106Z,3.5
2018-07-20T08:47:06.110Z,3.9
2018-07-20T08:52:06.170Z,4.2
2018-07-20T08:57:06.104Z,4.0
2018-07-20T09:07:01.193Z,3.9
2018-07-20T09:17:01.164Z,3.8
2018-07-20T09:22:01.164Z,4.0
2018-07-20T09:27:01.107Z,4.2
2018-07-20T09:37:01.188Z,4.4
2018-07-20T09:47:06.181Z,4.2
2018-07-20T09:52:06.243Z,4.4
2018-07-20T09:57:01.133Z,4.8
2018-07-20T10:02:06.165Z,5.0
2018-07-20T10:07:01.132Z,5.5
2018-07-20T10:12:01.144Z,6.0
2018-07-20T10:17:01.104Z,6.4
2018-07-20T10:22:01.198Z,7.0
2018-07-20T10:27:01.118Z,7.6
2018-07-20T10:32:01.169Z,7.9
2018-07-20T10:37:06.118Z,8.5
2018-07-20T10:42:06.179Z,9.2
2018-07-20T10:47:01.227Z,8.9
2018-07-20T10:53:01.164Z,9.1
2018-07-20T10:58:01.061Z,9.2
2018-07-20T11:03:01.246Z,8.6
2018-07-20T11:08:01.152Z,8.2
2018-07-20T11:13:01.169Z,8.3
2018-07-20T11:18:01.080Z,8.2
2018-07-20T11:29:01.099Z,8.8
2018-07-20T11:34:01.101Z,8.5
2018-07-20T11:39:01.113Z,8.7
2018-07-20T11:44:01.105Z,8.4
2018-07-20T11:49:01.106Z,7.9
2018-07-20T11:54:01.086Z,7.4
2018-07-20T11:59:01.202Z,8.1
2018-07-20T12:04:01.110Z,7.9
2018-07-20T12:09:06.177Z,7.8
2018-07-20T12:14:01.139Z,8.6
2018-07-20T12:19:06.152Z,8.9
2018-07-20T12:24:01.117Z,8.4
2018-07-20T12:29:01.165Z,8.8
2018-07-20T12:34:01.151Z,9.2
2018-07-20T12:44:01.175Z,9.6
2018-07-20T12:59:06.158Z,9.8
2018-07-20T13:04:01.125Z,9.9
2018-07-20T13:09:01.207Z,9.2
2018-07-20T13:14:01.135Z,10.0
2018-07-20T13:19:01.221Z,9.8
2018-07-20T13:24:01.144Z,9.6
2018-07-20T13:29:01.281Z,9.0
2018-07-20T13:34:06.109Z,9.5
2018-07-20T13:40:00.392Z,7.0
2018-07-20T13:45:00.356Z,7.9
2018-07-20T13:50:00.427Z,9.3
2018-07-20T13:55:00.334Z,9.4
2018-07-20T14:00:00.402Z,9.6
2018-07-20T14:05:00.306Z,10.1
2018-07-20T14:10:00.447Z,10.2
2018-07-20T14:15:00.365Z,9.8
2018-07-20T14:20:00.387Z,9.7
2018-07-20T14:25:00.350Z,9.4
2018-07-20T14:30:01.272Z,9.1
2018-07-20T14:37:00.368Z,9.0
2018-07-20T14:47:00.345Z,9.5
2018-07-20T14:52:00.477Z,9.0
2018-07-20T14:57:00.488Z,9.2
2018-07-20T15:02:00.426Z,9.4
2018-07-20T15:12:00.518Z,9.6
2018-07-20T15:17:00.359Z,9.8
2018-07-20T15:22:00.497Z,9.4
2018-07-20T15:27:00.385Z,9.2
2018-07-20T15:32:00.434Z,9.4
2018-07-20T15:37:01.395Z,9.0
2018-07-20T15:42:00.443Z,9.2
2018-07-20T15:47:00.775Z,9.6
2018-07-20T16:15:00.319Z,9.4
2018-07-20T16:25:00.311Z,8.9
2018-07-20T16:30:00.391Z,9.5
2018-07-20T16:35:00.220Z,9.2
2018-07-20T16:40:05.314Z,9.3
2018-07-20T16:45:00.247Z,9.4
2018-07-20T16:50:00.318Z,9.8
2018-07-20T16:55:00.251Z,9.6
2018-07-20T17:00:00.399Z,9.7
2018-07-20T17:05:00.263Z,9.6
2018-07-20T17:10:00.319Z,9.5
2018-07-20T17:15:00.261Z,9.5
2018-07-20T17:20:00.264Z,9.3
2018-07-20T17:25:00.274Z,9.6
2018-07-20T17:30:00.397Z,9.2
2018-07-20T17:35:00.370Z,9.9
2018-07-20T17:40:00.283Z,9.8
2018-07-20T17:45:00.280Z,10.0
2018-07-20T17:50:00.276Z,10.1
2018-07-20T17:55:00.276Z,10.5
2018-07-20T18:00:00.415Z,10.0
2018-07-20T18:10:00.288Z,10.4
2018-07-20T18:15:00.282Z,10.6
2018-07-20T18:20:00.297Z,10.3
2018-07-20T18:25:00.286Z,10.4
2018-07-20T18:30:00.420Z,10.0
2018-07-20T18:35:00.297Z,9.9
2018-07-20T18:40:00.301Z,9.5
2018-07-20T18:45:00.296Z,10.0
2018-07-20T18:50:00.298Z,10.3
2018-07-20T18:55:00.295Z,10.8
2018-07-20T19:00:00.433Z,10.4
2018-07-20T19:05:00.283Z,10.6
2018-07-20T19:10:00.326Z,10.3
2018-07-20T19:15:00.471Z,10.1
2018-07-20T19:20:00.383Z,10.2
2018-07-20T19:25:00.280Z,10.4
2018-07-20T19:30:00.386Z,10.5
2018-07-20T19:35:00.288Z,10.8
2018-07-20T19:40:00.321Z,10.7
2018-07-20T19:45:00.300Z,11.2
2018-07-20T19:50:00.397Z,11.3
2018-07-20T20:00:00.401Z,11.2
2018-07-20T20:05:00.347Z,11.7
2018-07-20T20:15:00.406Z,12.3
2018-07-20T20:20:00.407Z,12.5
2018-07-20T20:25:00.346Z,12.4
2018-07-20T20:30:00.412Z,12.4
2018-07-20T20:35:05.351Z,12.5
2018-07-20T20:40:00.487Z,12.0
2018-07-20T20:45:00.359Z,12.1
2018-07-20T20:50:00.434Z,12.2
2018-07-20T20:55:00.359Z,12.4
2018-07-20T21:00:00.427Z,11.8
2018-07-20T21:10:00.500Z,11.2
2018-07-20T21:15:00.332Z,11.6
2018-07-20T21:20:00.428Z,11.3
2018-07-20T21:25:00.345Z,11.0
2018-07-20T21:30:05.448Z,10.6
2018-07-20T21:35:05.433Z,10.2
2018-07-20T21:40:00.554Z,9.8
2018-07-20T21:45:00.384Z,9.8
2018-07-20T21:50:00.456Z,9.6
2018-07-20T21:55:00.389Z,9.8
2018-07-20T22:00:00.460Z,10.5
2018-07-20T22:05:00.392Z,10.2
2018-07-20T22:10:00.397Z,9.6
2018-07-20T22:15:00.392Z,9.8
2018-07-20T22:20:00.458Z,9.4
2018-07-20T22:25:00.399Z,8.7
2018-07-20T22:30:00.504Z,8.2
2018-07-20T22:35:00.408Z,8.5
2018-07-20T22:40:00.537Z,8.3
2018-07-20T22:45:00.412Z,8.4
2018-07-20T22:50:00.480Z,9.0
2018-07-20T22:55:00.408Z,9.6
2018-07-20T23:00:00.502Z,10.0
2018-07-20T23:05:00.411Z,10.3
2018-07-20T23:10:00.427Z,10.4
2018-07-20T23:15:00.391Z,9.9
2018-07-20T23:20:00.489Z,10.4
2018-07-20T23:25:00.409Z,9.8
2018-07-20T23:30:00.449Z,9.3
2018-07-20T23:35:00.424Z,9.0
2018-07-20T23:40:00.557Z,9.4
2018-07-20T23:45:00.441Z,9.1
2018-07-20T23:50:00.501Z,9.2
